sensor_id;sensor_type;location;lat;lon;timestamp;temperature;humidity
29551;DHT22;16488;52.396;10.696;2024-03-25T12:24:09;9.50;99.90
29551;DHT22;16488;52.396;10.696;2024-03-25T12:26:36;9.60;99.90
29551;DHT22;16488;52.396;10.696;2024-03-25T12:29:02;9.60;99.90
29551;DHT22;16488;52.396;10.696;2024-03-25T12:31:29;9.60;99.90
29551;DHT22;16488;52.396;10.696;2024-03-25T12:33:55;9.50;99.90
29551;DHT22;16488;52.396;10.696;2024-03-25T12:36:20;9.30;99.90
29551;DHT22;16488;52.396;10.696;2024-03-25T12:38:54;9.20;99.90
29551;DHT22;16488;52.396;10.696;2024-03-25T12:41:21;9.10;99.90
29551;DHT22;16488;52.396;10.696;2024-03-25T12:43:47;9.10;99.90
29551;DHT22;16488;52.396;10.696;2024-03-25T12:46:12;9.10;99.90
29551;DHT22;16488;52.396;10.696;2024-03-25T12:51:41;9.70;99.90
29551;DHT22;16488;52.396;10.696;2024-03-25T12:54:07;9.90;99.90
29551;DHT22;16488;52.396;10.696;2024-03-25T12:56:32;9.90;99.90
29551;DHT22;16488;52.396;10.696;2024-03-25T12:58:58;10.00;99.90
29551;DHT22;16488;52.396;10.696;2024-03-25T13:01:24;10.10;99.90
29551;DHT22;16488;52.396;10.696;2024-03-25T13:03:49;10.30;99.90
29551;DHT22;16488;52.396;10.696;2024-03-25T13:06:15;10.40;99.90
29551;DHT22;16488;52.396;10.696;2024-03-25T13:08:40;10.60;99.90
29551;DHT22;16488;52.396;10.696;2024-03-25T13:11:06;11.10;99.90
29551;DHT22;16488;52.396;10.696;2024-03-25T13:13:31;11.30;99.90
29551;DHT22;16488;52.396;10.696;2024-03-25T13:15:57;11.40;99.90
29551;DHT22;16488;52.396;10.696;2024-03-25T13:18:22;11.40;99.90
29551;DHT22;16488;52.396;10.696;2024-03-25T13:20:48;11.30;99.90
29551;DHT22;16488;52.396;10.696;2024-03-25T13:23:13;11.00;99.90
29551;DHT22;16488;52.396;10.696;2024-03-25T13:25:39;10.80;99.90
29551;DHT22;16488;52.396;10.696;2024-03-25T13:28:04;10.50;99.90
29551;DHT22;16488;52.396;10.696;2024-03-25T13:30:30;10.20;99.90
29551;DHT22;16488;52.396;10.696;2024-03-25T13:32:56;10.00;99.90
29551;DHT22;16488;52.396;10.696;2024-03-25T13:35:22;10.00;99.90
29551;DHT22;16488;52.396;10.696;2024-03-25T13:37:47;10.10;99.90
29551;DHT22;16488;52.396;10.696;2024-03-25T13:40:13;10.20;99.90
29551;DHT22;16488;52.396;10.696;2024-03-25T13:42:39;10.30;99.90
29551;DHT22;16488;52.396;10.696;2024-03-25T13:45:04;10.50;99.90
29551;DHT22;16488;52.396;10.696;2024-03-25T13:47:30;10.40;99.90
29551;DHT22;16488;52.396;10.696;2024-03-25T13:50:05;10.30;99.90
29551;DHT22;16488;52.396;10.696;2024-03-25T13:52:33;10.20;99.90
29551;DHT22;16488;52.396;10.696;2024-03-25T13:54:59;10.00;99.90
29551;DHT22;16488;52.396;10.696;2024-03-25T13:57:25;10.00;99.90
29551;DHT22;16488;52.396;10.696;2024-03-25T13:59:51;9.90;99.90
29551;DHT22;16488;52.396;10.696;2024-03-25T14:02:16;9.90;99.90
29551;DHT22;16488;52.396;10.696;2024-03-25T14:04:42;10.00;99.90
29551;DHT22;16488;52.396;10.696;2024-03-25T14:07:07;10.00;99.90
29551;DHT22;16488;52.396;10.696;2024-03-25T14:09:33;10.10;99.90
29551;DHT22;16488;52.396;10.696;2024-03-25T14:11:58;10.20;99.90
29551;DHT22;16488;52.396;10.696;2024-03-25T14:14:23;10.40;99.90
29551;DHT22;16488;52.396;10.696;2024-03-25T14:16:49;11.10;99.90
29551;DHT22;16488;52.396;10.696;2024-03-25T14:19:14;11.90;98.60
29551;DHT22;16488;52.396;10.696;2024-03-25T14:21:40;12.00;97.50
29551;DHT22;16488;52.396;10.696;2024-03-25T14:24:06;11.60;98.00
29551;DHT22;16488;52.396;10.696;2024-03-25T14:26:32;11.40;99.00
29551;DHT22;16488;52.396;10.696;2024-03-25T14:28:58;11.50;98.00
29551;DHT22;16488;52.396;10.696;2024-03-25T14:31:25;11.70;98.50
29551;DHT22;16488;52.396;10.696;2024-03-25T14:33:50;11.60;98.20
29551;DHT22;16488;52.396;10.696;2024-03-25T14:36:16;11.50;98.60
29551;DHT22;16488;52.396;10.696;2024-03-25T14:38:41;11.00;98.20
29551;DHT22;16488;52.396;10.696;2024-03-25T14:41:07;10.90;98.60
29551;DHT22;16488;52.396;10.696;2024-03-25T14:43:32;10.80;99.60
29551;DHT22;16488;52.396;10.696;2024-03-25T14:45:58;10.70;99.50
29551;DHT22;16488;52.396;10.696;2024-03-25T14:48:23;10.70;99.60
29551;DHT22;16488;52.396;10.696;2024-03-25T14:50:49;10.80;99.20
29551;DHT22;16488;52.396;10.696;2024-03-25T14:53:14;10.90;99.20
29551;DHT22;16488;52.396;10.696;2024-03-25T14:55:41;11.40;98.70
29551;DHT22;16488;52.396;10.696;2024-03-25T14:58:06;11.90;98.60
29551;DHT22;16488;52.396;10.696;2024-03-25T15:00:32;12.40;97.00
29551;DHT22;16488;52.396;10.696;2024-03-25T15:02:57;13.40;97.40
29551;DHT22;16488;52.396;10.696;2024-03-25T15:05:23;14.80;95.80
29551;DHT22;16488;52.396;10.696;2024-03-25T15:07:48;15.70;92.80
29551;DHT22;16488;52.396;10.696;2024-03-25T15:10:14;15.30;91.90
29551;DHT22;16488;52.396;10.696;2024-03-25T15:12:39;14.50;93.30
29551;DHT22;16488;52.396;10.696;2024-03-25T15:15:05;13.90;94.30
29551;DHT22;16488;52.396;10.696;2024-03-25T15:17:33;13.70;93.10
29551;DHT22;16488;52.396;10.696;2024-03-25T15:19:58;13.30;92.90
29551;DHT22;16488;52.396;10.696;2024-03-25T15:22:24;12.50;94.50
29551;DHT22;16488;52.396;10.696;2024-03-25T15:24:50;11.90;95.00
29551;DHT22;16488;52.396;10.696;2024-03-25T15:27:15;11.80;94.10
29551;DHT22;16488;52.396;10.696;2024-03-25T15:29:41;12.50;93.90
29551;DHT22;16488;52.396;10.696;2024-03-25T15:32:06;13.30;93.80
29551;DHT22;16488;52.396;10.696;2024-03-25T15:34:32;14.70;91.80
29551;DHT22;16488;52.396;10.696;2024-03-25T15:36:57;15.90;90.80
29551;DHT22;16488;52.396;10.696;2024-03-25T15:39:23;17.50;87.00
29551;DHT22;16488;52.396;10.696;2024-03-25T15:41:48;17.60;81.10
29551;DHT22;16488;52.396;10.696;2024-03-25T15:44:15;16.20;79.10
29551;DHT22;16488;52.396;10.696;2024-03-25T15:46:41;15.00;81.40
29551;DHT22;16488;52.396;10.696;2024-03-25T15:49:07;14.40;83.10
29551;DHT22;16488;52.396;10.696;2024-03-25T15:51:32;13.30;84.60
29551;DHT22;16488;52.396;10.696;2024-03-25T15:53:58;12.40;87.30
29551;DHT22;16488;52.396;10.696;2024-03-25T15:56:24;11.90;92.10
29551;DHT22;16488;52.396;10.696;2024-03-25T15:58:50;11.60;93.10
29551;DHT22;16488;52.396;10.696;2024-03-25T16:01:15;11.60;93.30
29551;DHT22;16488;52.396;10.696;2024-03-25T16:03:41;11.90;92.10
29551;DHT22;16488;52.396;10.696;2024-03-25T16:06:06;12.20;91.50
29551;DHT22;16488;52.396;10.696;2024-03-25T16:08:32;12.20;90.70
29551;DHT22;16488;52.396;10.696;2024-03-25T16:10:58;11.90;91.20
29551;DHT22;16488;52.396;10.696;2024-03-25T16:13:23;11.60;92.10
29551;DHT22;16488;52.396;10.696;2024-03-25T16:16:04;11.30;92.50
29551;DHT22;16488;52.396;10.696;2024-03-25T16:18:33;11.20;93.70
29551;DHT22;16488;52.396;10.696;2024-03-25T16:21:01;11.10;92.40
29551;DHT22;16488;52.396;10.696;2024-03-25T16:23:26;10.90;92.70
29551;DHT22;16488;52.396;10.696;2024-03-25T16:25:52;10.70;93.90
29551;DHT22;16488;52.396;10.696;2024-03-25T16:28:17;10.60;94.20
29551;DHT22;16488;52.396;10.696;2024-03-25T16:30:43;10.50;94.60
29551;DHT22;16488;52.396;10.696;2024-03-25T16:33:09;10.40;93.80
29551;DHT22;16488;52.396;10.696;2024-03-25T16:35:34;10.30;93.80
29551;DHT22;16488;52.396;10.696;2024-03-25T16:38:00;10.20;94.60
29551;DHT22;16488;52.396;10.696;2024-03-25T16:40:25;10.30;94.90
29551;DHT22;16488;52.396;10.696;2024-03-25T16:42:51;10.50;94.60
29551;DHT22;16488;52.396;10.696;2024-03-25T16:45:17;10.80;94.90
29551;DHT22;16488;52.396;10.696;2024-03-25T16:47:42;10.90;93.60
29551;DHT22;16488;52.396;10.696;2024-03-25T16:50:08;10.80;94.20
29551;DHT22;16488;52.396;10.696;2024-03-25T16:52:36;10.90;94.50
29551;DHT22;16488;52.396;10.696;2024-03-25T16:55:02;10.90;94.40
29551;DHT22;16488;52.396;10.696;2024-03-25T16:57:27;11.00;95.10
29551;DHT22;16488;52.396;10.696;2024-03-25T16:59:53;11.10;95.40
29551;DHT22;16488;52.396;10.696;2024-03-25T17:02:18;11.00;94.60
29551;DHT22;16488;52.396;10.696;2024-03-25T17:04:44;10.70;93.80
29551;DHT22;16488;52.396;10.696;2024-03-25T17:07:09;10.40;93.90
29551;DHT22;16488;52.396;10.696;2024-03-25T17:09:35;10.00;94.40
29551;DHT22;16488;52.396;10.696;2024-03-25T17:12:00;9.70;95.00
29551;DHT22;16488;52.396;10.696;2024-03-25T17:14:26;9.40;95.90
29551;DHT22;16488;52.396;10.696;2024-03-25T17:16:51;9.10;96.90
29551;DHT22;16488;52.396;10.696;2024-03-25T17:19:17;8.90;97.60
29551;DHT22;16488;52.396;10.696;2024-03-25T17:21:42;8.80;98.60
29551;DHT22;16488;52.396;10.696;2024-03-25T17:24:08;8.70;98.90
29551;DHT22;16488;52.396;10.696;2024-03-25T17:26:34;8.60;99.60
29551;DHT22;16488;52.396;10.696;2024-03-25T17:28:59;8.50;99.90
29551;DHT22;16488;52.396;10.696;2024-03-25T17:31:26;8.50;99.90
29551;DHT22;16488;52.396;10.696;2024-03-25T17:33:51;8.50;99.90
29551;DHT22;16488;52.396;10.696;2024-03-25T17:36:17;8.30;99.90
29551;DHT22;16488;52.396;10.696;2024-03-25T17:38:42;8.20;99.90
29551;DHT22;16488;52.396;10.696;2024-03-25T17:41:08;8.10;99.90
29551;DHT22;16488;52.396;10.696;2024-03-25T17:43:35;8.00;99.90
29551;DHT22;16488;52.396;10.696;2024-03-25T17:46:04;7.90;99.90
29551;DHT22;16488;52.396;10.696;2024-03-25T17:48:29;7.80;99.90
29551;DHT22;16488;52.396;10.696;2024-03-25T17:50:59;7.50;99.90
29551;DHT22;16488;52.396;10.696;2024-03-25T17:53:26;7.40;99.90
29551;DHT22;16488;52.396;10.696;2024-03-25T17:55:53;7.00;99.90
29551;DHT22;16488;52.396;10.696;2024-03-25T17:58:18;6.70;99.90
29551;DHT22;16488;52.396;10.696;2024-03-25T18:00:44;6.40;99.90
29551;DHT22;16488;52.396;10.696;2024-03-25T18:03:09;6.20;99.90
29551;DHT22;16488;52.396;10.696;2024-03-25T18:05:35;6.10;99.90
29551;DHT22;16488;52.396;10.696;2024-03-25T18:08:01;6.10;99.90
29551;DHT22;16488;52.396;10.696;2024-03-25T18:10:26;6.20;99.90
29551;DHT22;16488;52.396;10.696;2024-03-25T18:12:52;6.20;99.90
29551;DHT22;16488;52.396;10.696;2024-03-25T18:15:17;6.10;99.90
29551;DHT22;16488;52.396;10.696;2024-03-25T18:17:43;6.10;99.90
29551;DHT22;16488;52.396;10.696;2024-03-25T18:20:08;6.00;99.90
29551;DHT22;16488;52.396;10.696;2024-03-25T18:22:34;6.00;99.90
29551;DHT22;16488;52.396;10.696;2024-03-25T18:25:00;5.90;99.90
29551;DHT22;16488;52.396;10.696;2024-03-25T18:27:25;5.90;99.90
29551;DHT22;16488;52.396;10.696;2024-03-25T18:29:51;5.80;99.90
29551;DHT22;16488;52.396;10.696;2024-03-25T18:32:17;5.80;99.90
29551;DHT22;16488;52.396;10.696;2024-03-25T18:34:43;5.80;99.90
29551;DHT22;16488;52.396;10.696;2024-03-25T18:37:11;5.70;99.90
29551;DHT22;16488;52.396;10.696;2024-03-25T18:39:36;5.60;99.90
29551;DHT22;16488;52.396;10.696;2024-03-25T18:42:02;5.60;99.90
29551;DHT22;16488;52.396;10.696;2024-03-25T18:44:27;5.50;99.90
29551;DHT22;16488;52.396;10.696;2024-03-25T18:46:54;5.40;99.90
29551;DHT22;16488;52.396;10.696;2024-03-25T18:49:19;5.30;99.90
29551;DHT22;16488;52.396;10.696;2024-03-25T18:51:46;5.10;99.90
29551;DHT22;16488;52.396;10.696;2024-03-25T18:54:11;4.80;99.90
29551;DHT22;16488;52.396;10.696;2024-03-25T18:56:37;4.60;99.90
29551;DHT22;16488;52.396;10.696;2024-03-25T18:59:02;4.50;99.90
29551;DHT22;16488;52.396;10.696;2024-03-25T19:01:28;4.40;99.90
29551;DHT22;16488;52.396;10.696;2024-03-25T19:03:54;4.30;99.90
29551;DHT22;16488;52.396;10.696;2024-03-25T19:06:19;4.30;99.90
29551;DHT22;16488;52.396;10.696;2024-03-25T19:08:48;4.20;99.90
29551;DHT22;16488;52.396;10.696;2024-03-25T19:11:13;4.20;99.90
29551;DHT22;16488;52.396;10.696;2024-03-25T19:13:39;4.20;99.90
29551;DHT22;16488;52.396;10.696;2024-03-25T19:16:04;4.20;99.90
29551;DHT22;16488;52.396;10.696;2024-03-25T19:18:30;4.10;99.90
29551;DHT22;16488;52.396;10.696;2024-03-25T19:20:55;4.00;99.90
29551;DHT22;16488;52.396;10.696;2024-03-25T19:23:21;3.80;99.90
29551;DHT22;16488;52.396;10.696;2024-03-25T19:25:46;3.70;99.90
29551;DHT22;16488;52.396;10.696;2024-03-25T19:28:12;3.60;99.90
29551;DHT22;16488;52.396;10.696;2024-03-25T19:30:38;3.40;99.90
29551;DHT22;16488;52.396;10.696;2024-03-25T19:33:03;3.40;99.90
29551;DHT22;16488;52.396;10.696;2024-03-25T19:35:29;3.30;99.90
29551;DHT22;16488;52.396;10.696;2024-03-25T19:37:54;3.20;99.90
29551;DHT22;16488;52.396;10.696;2024-03-25T19:40:20;3.20;99.90
29551;DHT22;16488;52.396;10.696;2024-03-25T19:42:45;3.10;99.90
29551;DHT22;16488;52.396;10.696;2024-03-25T19:45:11;3.10;99.90
29551;DHT22;16488;52.396;10.696;2024-03-25T19:47:36;3.10;99.90
29551;DHT22;16488;52.396;10.696;2024-03-25T19:50:02;3.20;99.90
29551;DHT22;16488;52.396;10.696;2024-03-25T19:52:28;3.10;99.90
29551;DHT22;16488;52.396;10.696;2024-03-25T19:54:54;3.10;99.90
29551;DHT22;16488;52.396;10.696;2024-03-25T19:57:19;3.10;99.90
29551;DHT22;16488;52.396;10.696;2024-03-25T19:59:47;3.10;99.90
29551;DHT22;16488;52.396;10.696;2024-03-25T20:02:16;3.10;99.90
29551;DHT22;16488;52.396;10.696;2024-03-25T20:04:42;3.10;99.90
29551;DHT22;16488;52.396;10.696;2024-03-25T20:07:09;3.20;99.90
29551;DHT22;16488;52.396;10.696;2024-03-25T20:09:35;3.20;99.90
29551;DHT22;16488;52.396;10.696;2024-03-25T20:12:00;3.10;99.90
29551;DHT22;16488;52.396;10.696;2024-03-25T20:14:25;2.90;99.90
29551;DHT22;16488;52.396;10.696;2024-03-25T20:16:51;2.80;99.90
29551;DHT22;16488;52.396;10.696;2024-03-25T20:19:17;2.70;99.90
29551;DHT22;16488;52.396;10.696;2024-03-25T20:21:42;2.60;99.90
29551;DHT22;16488;52.396;10.696;2024-03-25T20:24:09;2.60;99.90
29551;DHT22;16488;52.396;10.696;2024-03-25T20:26:34;2.60;99.90
29551;DHT22;16488;52.396;10.696;2024-03-25T20:29:00;2.60;99.90
29551;DHT22;16488;52.396;10.696;2024-03-25T20:31:25;2.60;99.90
29551;DHT22;16488;52.396;10.696;2024-03-25T20:33:51;2.60;99.90
29551;DHT22;16488;52.396;10.696;2024-03-25T20:36:17;2.60;99.90
29551;DHT22;16488;52.396;10.696;2024-03-25T20:38:43;2.50;99.90
29551;DHT22;16488;52.396;10.696;2024-03-25T20:41:08;2.60;99.90
29551;DHT22;16488;52.396;10.696;2024-03-25T20:43:40;2.60;99.90
29551;DHT22;16488;52.396;10.696;2024-03-25T20:46:06;2.60;99.90
29551;DHT22;16488;52.396;10.696;2024-03-25T20:48:32;2.60;99.90
29551;DHT22;16488;52.396;10.696;2024-03-25T20:50:57;2.60;99.90
29551;DHT22;16488;52.396;10.696;2024-03-25T20:53:23;2.60;99.90
29551;DHT22;16488;52.396;10.696;2024-03-25T20:55:49;2.60;99.90
29551;DHT22;16488;52.396;10.696;2024-03-25T20:58:15;2.50;99.90
29551;DHT22;16488;52.396;10.696;2024-03-25T21:00:41;2.50;99.90
29551;DHT22;16488;52.396;10.696;2024-03-25T21:03:06;2.50;99.90
29551;DHT22;16488;52.396;10.696;2024-03-25T21:05:32;2.30;99.90
29551;DHT22;16488;52.396;10.696;2024-03-25T21:07:57;2.30;99.90
29551;DHT22;16488;52.396;10.696;2024-03-25T21:10:23;2.20;99.90
29551;DHT22;16488;52.396;10.696;2024-03-25T21:12:48;2.20;99.90
29551;DHT22;16488;52.396;10.696;2024-03-25T21:15:14;2.20;99.90
29551;DHT22;16488;52.396;10.696;2024-03-25T21:17:39;2.20;99.90
29551;DHT22;16488;52.396;10.696;2024-03-25T21:20:05;2.20;99.90
29551;DHT22;16488;52.396;10.696;2024-03-25T21:22:31;2.10;99.90
29551;DHT22;16488;52.396;10.696;2024-03-25T21:24:57;2.20;99.90
29551;DHT22;16488;52.396;10.696;2024-03-25T21:27:22;2.10;99.90
29551;DHT22;16488;52.396;10.696;2024-03-25T21:29:48;2.20;99.90
29551;DHT22;16488;52.396;10.696;2024-03-25T21:32:14;2.10;99.90
29551;DHT22;16488;52.396;10.696;2024-03-25T21:34:39;2.00;99.90
29551;DHT22;16488;52.396;10.696;2024-03-25T21:37:05;2.00;99.90
29551;DHT22;16488;52.396;10.696;2024-03-25T21:39:30;1.90;99.90
29551;DHT22;16488;52.396;10.696;2024-03-25T21:41:56;1.90;99.90
29551;DHT22;16488;52.396;10.696;2024-03-25T21:44:21;1.90;99.90
29551;DHT22;16488;52.396;10.696;2024-03-25T21:46:47;2.00;99.90
29551;DHT22;16488;52.396;10.696;2024-03-25T21:49:12;2.00;99.90
29551;DHT22;16488;52.396;10.696;2024-03-25T21:51:39;2.10;99.90
29551;DHT22;16488;52.396;10.696;2024-03-25T21:54:05;2.10;99.90
29551;DHT22;16488;52.396;10.696;2024-03-25T21:56:30;2.10;99.90
29551;DHT22;16488;52.396;10.696;2024-03-25T21:58:56;2.20;99.90
29551;DHT22;16488;52.396;10.696;2024-03-25T22:01:21;2.20;99.90
29551;DHT22;16488;52.396;10.696;2024-03-25T22:03:47;2.20;99.90
29551;DHT22;16488;52.396;10.696;2024-03-25T22:06:12;2.20;99.90
29551;DHT22;16488;52.396;10.696;2024-03-25T22:08:38;2.20;99.90
29551;DHT22;16488;52.396;10.696;2024-03-25T22:11:03;2.30;99.90
29551;DHT22;16488;52.396;10.696;2024-03-25T22:13:29;2.30;99.90
29551;DHT22;16488;52.396;10.696;2024-03-25T22:15:58;2.20;99.90
29551;DHT22;16488;52.396;10.696;2024-03-25T22:18:24;2.30;99.90
29551;DHT22;16488;52.396;10.696;2024-03-25T22:20:49;2.30;99.90
29551;DHT22;16488;52.396;10.696;2024-03-25T22:23:14;2.30;99.90
29551;DHT22;16488;52.396;10.696;2024-03-25T22:25:40;2.30;99.90
29551;DHT22;16488;52.396;10.696;2024-03-25T22:28:05;2.30;99.90
29551;DHT22;16488;52.396;10.696;2024-03-25T22:30:31;2.30;99.90
29551;DHT22;16488;52.396;10.696;2024-03-25T22:32:56;2.30;99.90
29551;DHT22;16488;52.396;10.696;2024-03-25T22:35:22;2.30;99.90
29551;DHT22;16488;52.396;10.696;2024-03-25T22:37:47;2.30;99.90
29551;DHT22;16488;52.396;10.696;2024-03-25T22:40:13;2.40;99.90
29551;DHT22;16488;52.396;10.696;2024-03-25T22:42:38;2.40;99.90
29551;DHT22;16488;52.396;10.696;2024-03-25T22:45:04;2.40;99.90
29551;DHT22;16488;52.396;10.696;2024-03-25T22:47:30;2.40;99.90
29551;DHT22;16488;52.396;10.696;2024-03-25T22:49:55;2.40;99.90
29551;DHT22;16488;52.396;10.696;2024-03-25T22:52:21;2.40;99.90
29551;DHT22;16488;52.396;10.696;2024-03-25T22:54:46;2.40;99.90
29551;DHT22;16488;52.396;10.696;2024-03-25T22:57:12;2.50;99.90
29551;DHT22;16488;52.396;10.696;2024-03-25T22:59:37;2.60;99.90
29551;DHT22;16488;52.396;10.696;2024-03-25T23:02:03;2.80;99.90
29551;DHT22;16488;52.396;10.696;2024-03-25T23:04:29;3.10;99.90
29551;DHT22;16488;52.396;10.696;2024-03-25T23:06:55;3.40;99.90
29551;DHT22;16488;52.396;10.696;2024-03-25T23:09:21;3.70;99.90
29551;DHT22;16488;52.396;10.696;2024-03-25T23:11:47;3.80;99.90
29551;DHT22;16488;52.396;10.696;2024-03-25T23:14:12;3.90;99.90
29551;DHT22;16488;52.396;10.696;2024-03-25T23:16:38;3.90;99.90
29551;DHT22;16488;52.396;10.696;2024-03-25T23:19:03;3.90;99.90
29551;DHT22;16488;52.396;10.696;2024-03-25T23:21:28;3.90;99.90
29551;DHT22;16488;52.396;10.696;2024-03-25T23:23:54;4.00;99.90
29551;DHT22;16488;52.396;10.696;2024-03-25T23:26:19;4.10;99.90
29551;DHT22;16488;52.396;10.696;2024-03-25T23:28:45;4.00;99.90
29551;DHT22;16488;52.396;10.696;2024-03-25T23:31:10;4.00;99.90
29551;DHT22;16488;52.396;10.696;2024-03-25T23:33:36;4.00;99.90
29551;DHT22;16488;52.396;10.696;2024-03-25T23:36:03;4.00;99.90
29551;DHT22;16488;52.396;10.696;2024-03-25T23:38:29;4.10;99.90
29551;DHT22;16488;52.396;10.696;2024-03-25T23:40:54;4.10;99.90
29551;DHT22;16488;52.396;10.696;2024-03-25T23:43:20;4.10;99.90
29551;DHT22;16488;52.396;10.696;2024-03-25T23:45:45;4.10;99.90
29551;DHT22;16488;52.396;10.696;2024-03-25T23:48:11;4.20;99.90
29551;DHT22;16488;52.396;10.696;2024-03-25T23:50:36;4.20;99.90
29551;DHT22;16488;52.396;10.696;2024-03-25T23:53:02;4.30;99.90
29551;DHT22;16488;52.396;10.696;2024-03-25T23:55:28;4.30;99.90
29551;DHT22;16488;52.396;10.696;2024-03-25T23:57:53;4.30;99.90
